Pride Of Rotterdam — PBAJ — position and weather

sailwx.info

Track history (hours):
 
Tides and Currents Weather Stations Pressure Air Temp Water Temp Dewpoint Dewpoint Depression Visibility Wind Speed Wind Dir Waves Ship Positions

Pride Of Rotterdam

Operator: P&O Ferries

Last reported at 2020-Aug-10 00:31 UTC. Time now 2020-Aug-10 02:52 UTC.
Position N 53°02' E 001°40'.

Length 215 m; draft 5.7 m.

Type: Ship. MMSI: 244980000.

Date/timePositionNaut miles runAvg speedWind from/ knotsBaromVisibWave heightAir tempDewpointWater temp
2020-Aug-10 00:31N 53°02' E 001°40'1716.7
2020-Aug-09 23:31N 52°52' E 002°02'6117.4
2020-Aug-09 20:00N 52°15' E 003°21'2617.1
2020-Aug-09 18:31N 52°02' E 003°57'8 4.2
2020-Aug-09 16:29N 51°57' E 004°08'0 0.0
2020-Aug-09 14:59N 51°57' E 004°08'0 0.0
2020-Aug-09 12:28N 51°57' E 004°08'0 0.0
2020-Aug-09 11:00N 51°57' E 004°08'0 0.0
2020-Aug-09 09:29N 51°57' E 004°08'0 0.0
2020-Aug-09 07:28N 51°57' E 004°08'0 0.0
2020-Aug-09 07:00N 51°57' E 004°08'1610.6
2020-Aug-09 05:31N 52°03' E 003°44'1616.1
2020-Aug-09 04:30N 52°11' E 003°21'8517.1
2020-Aug-08 23:30N 52°57' E 001°24'1818.1
2020-Aug-08 22:30N 53°06' E 000°57'5811.7
2020-Aug-08 17:30N 53°44' W 000°17'0 0.0
2020-Aug-08 14:29N 53°44' W 000°17'0 0.0
2020-Aug-08 12:58N 53°44' W 000°17'0 0.0
2020-Aug-08 11:28N 53°44' W 000°17'0 0.0
2020-Aug-08 11:01N 53°44' W 000°17'0 0.0
2020-Aug-08 09:30N 53°44' W 000°17'0 0.0
2020-Aug-08 09:00N 53°44' W 000°17'0 0.0
2020-Aug-08 07:59N 53°44' W 000°17'26 8.9
2020-Aug-08 05:00N 53°33' E 000°24'1616.1
2020-Aug-08 04:01N 53°25' E 000°47'816.7
2020-Aug-08 03:30N 53°21' E 000°59'816.9
2020-Aug-08 03:00N 53°16' E 001°11'3416.8
2020-Aug-08 01:00N 52°56' E 001°56'1615.5
2020-Aug-08 00:00N 52°45' E 002°13'3315.3
2020-Aug-07 21:50N 52°25' E 002°57'3816.1
2020-Aug-07 19:30N 52°04' E 003°49'14 6.7
2020-Aug-07 17:25N 51°57' E 004°08'0 0.0
2020-Aug-07 16:30N 51°57' E 004°08'0 0.0
2020-Aug-07 13:59N 51°57' E 004°08'0 0.0
2020-Aug-07 12:59N 51°57' E 004°08'0 0.0
2020-Aug-07 12:29N 51°57' E 004°08'0 0.0
2020-Aug-07 10:28N 51°57' E 004°08'0 0.0
2020-Aug-07 09:58N 51°57' E 004°08'0 0.0
2020-Aug-07 06:31N 51°57' E 004°08'2013.0
2020-Aug-07 05:01N 52°04' E 003°39'918.9
2020-Aug-07 04:31N 52°09' E 003°25'918.6
2020-Aug-07 04:00N 52°14' E 003°13'918.5
2020-Aug-07 03:31N 52°20' E 003°01'4618.3
2020-Aug-07 01:00N 52°45' E 001°58'2818.4
2020-Aug-06 23:30N 52°59' E 001°19'6217.6
2020-Aug-06 20:00N 53°36' W 000°03'11 2.8
2020-Aug-06 16:00N 53°44' W 000°17'0 0.0
2020-Aug-06 13:29N 53°44' W 000°17'0 0.0
2020-Aug-06 06:00N 53°44' W 000°17'2 3.1
2020-Aug-06 05:30N 53°43' W 000°15'1817.8
2020-Aug-06 04:30N 53°33' E 000°10'917.5
2020-Aug-06 04:00N 53°32' E 000°25'3517.4
2020-Aug-06 02:00N 53°12' E 001°11'1019.3
2020-Aug-06 01:30N 53°05' E 001°22'5317.7
2020-Aug-05 22:30N 52°34' E 002°33'4417.6
2020-Aug-05 20:00N 52°08' E 003°32'918.1
2020-Aug-05 19:30N 52°04' E 003°45'16 7.8
2020-Aug-05 17:29N 51°57' E 004°08'0 0.0
2020-Aug-05 14:00N 51°57' E 004°08'0 0.0
2020-Aug-05 13:00N 51°57' E 004°08'0 0.0
2020-Aug-05 12:27N 51°57' E 004°08'0 0.0
2020-Aug-05 09:28N 51°57' E 004°08'0 0.0
2020-Aug-05 06:31N 51°57' E 004°08'2914.1
2020-Aug-05 04:29N 52°08' E 003°26'7118.0
2020-Aug-05 00:31N 52°55' E 001°56'3718.6
2020-Aug-04 22:31N 53°18' E 001°08'3018.6
2020-Aug-04 20:55N 53°32' E 000°24'1617.9
2020-Aug-04 20:00N 53°36' W 000°02'12 4.0
2020-Aug-04 17:00N 53°44' W 000°17'0 0.0
2020-Aug-04 11:00N 53°44' W 000°17'0 0.0
2020-Aug-04 09:29N 53°44' W 000°17'0 0.0
2020-Aug-04 08:59N 53°44' W 000°17'0 0.0
2020-Aug-04 08:29N 53°44' W 000°17'10 2.9
2020-Aug-04 05:00N 53°37' W 000°05'1817.8
2020-Aug-04 04:00N 53°33' E 000°24'1616.0
2020-Aug-04 03:00N 53°24' E 000°46'8218.3
2020-Aug-03 22:30N 52°32' E 002°33'6813.5
2020-Aug-03 17:28N 51°57' E 004°08'0 0.0
2020-Aug-03 16:30N 51°57' E 004°08'0 0.0
2020-Aug-03 15:30N 51°57' E 004°08'0 0.0
2020-Aug-03 12:59N 51°57' E 004°08'0 0.0
2020-Aug-03 10:58N 51°57' E 004°08'0 0.0
2020-Aug-03 10:00N 51°57' E 004°08'0 0.0
2020-Aug-03 09:30N 51°57' E 004°08'0 0.0
2020-Aug-03 09:00N 51°57' E 004°08'0 0.0
2020-Aug-03 06:59N 51°57' E 004°08'10 6.7
2020-Aug-03 05:30N 52°01' E 003°53'1817.4
2020-Aug-03 04:29N 52°08' E 003°26'1616.9
2020-Aug-03 03:30N 52°18' E 003°05'5916.8
2020-Aug-03 00:01N 52°56' E 001°52'9113.9
2020-Aug-02 17:30N 53°44' W 000°17'0 0.0
2020-Aug-02 16:30N 53°44' W 000°17'0 0.0
2020-Aug-02 13:29N 53°44' W 000°17'0 0.0
2020-Aug-02 12:58N 53°44' W 000°17'0 0.0
2020-Aug-02 12:28N 53°44' W 000°17'0 0.0
2020-Aug-02 10:30N 53°44' W 000°17'0 0.0
2020-Aug-02 10:00N 53°44' W 000°17'1 0.2
2020-Aug-02 06:30N 53°44' W 000°16'2315.1
2020-Aug-02 05:00N 53°32' E 000°17'1415.2
2020-Aug-02 04:06N 53°27' E 000°38'715.0
2020-Aug-02 03:38N 53°24' E 000°49'915.0
2020-Aug-02 03:00N 53°19' E 001°02'1515.5
2020-Aug-02 02:00N 53°07' E 001°19'1717.3
2020-Aug-02 01:00N 52°55' E 001°39'4216.6
2020-Aug-01 22:30N 52°33' E 002°37'6610.1
2020-Aug-01 15:58N 51°57' E 004°08'0 0.0
2020-Aug-01 14:00N 51°57' E 004°08'0 0.0
2020-Aug-01 11:29N 51°57' E 004°08'0 0.0
2020-Aug-01 09:28N 51°57' E 004°08'18 4.6
2020-Aug-01 05:30N 52°04' E 003°40'4317.1
2020-Aug-01 02:59N 52°29' E 002°43'918.0
2020-Aug-01 02:30N 52°34' E 002°32'3617.9
2020-Aug-01 00:30N 52°58' E 001°48'917.7
2020-Aug-01 00:00N 53°04' E 001°37'5017.4
2020-Jul-31 21:07N 53°31' E 000°26'29 9.2
2020-Jul-31 18:00N 53°44' W 000°17'0 0.0
2020-Jul-31 15:29N 53°44' W 000°17'0 0.0
2020-Jul-31 12:00N 53°44' W 000°17'0 0.0
2020-Jul-31 09:59N 53°44' W 000°17'0 0.0
2020-Jul-31 06:28N 53°44' W 000°17'0 0.0
2020-Jul-31 05:58N 53°44' W 000°17'5 5.4
2020-Jul-31 05:01N 53°40' W 000°13'1514.6
2020-Jul-31 04:00N 53°33' E 000°09'5016.8
2020-Jul-31 01:01N 53°06' E 001°21'  
Track history (hours):
 
Tides and Currents Weather Stations Pressure Air Temp Water Temp Dewpoint Dewpoint Depression Visibility Wind Speed Wind Dir Waves Ship Positions

Pride Of Rotterdam

Operator: P&O Ferries

Last reported at 2020-Aug-10 00:31 UTC. Time now 2020-Aug-10 02:52 UTC.
Position N 53°02' E 001°40'.

Length 215 m; draft 5.7 m.

Type: Ship. MMSI: 244980000.

Date/timePositionNaut miles runAvg speedWind from/ knotsBaromVisibWave heightAir tempDewpointWater temp
2020-Aug-10 00:31N 53°02' E 001°40'1716.7
2020-Aug-09 23:31N 52°52' E 002°02'6117.4
2020-Aug-09 20:00N 52°15' E 003°21'2617.1
2020-Aug-09 18:31N 52°02' E 003°57'8 4.2
2020-Aug-09 16:29N 51°57' E 004°08'0 0.0
2020-Aug-09 14:59N 51°57' E 004°08'0 0.0
2020-Aug-09 12:28N 51°57' E 004°08'0 0.0
2020-Aug-09 11:00N 51°57' E 004°08'0 0.0
2020-Aug-09 09:29N 51°57' E 004°08'0 0.0
2020-Aug-09 07:28N 51°57' E 004°08'0 0.0
2020-Aug-09 07:00N 51°57' E 004°08'1610.6
2020-Aug-09 05:31N 52°03' E 003°44'1616.1
2020-Aug-09 04:30N 52°11' E 003°21'8517.1
2020-Aug-08 23:30N 52°57' E 001°24'1818.1
2020-Aug-08 22:30N 53°06' E 000°57'5811.7
2020-Aug-08 17:30N 53°44' W 000°17'0 0.0
2020-Aug-08 14:29N 53°44' W 000°17'0 0.0
2020-Aug-08 12:58N 53°44' W 000°17'0 0.0
2020-Aug-08 11:28N 53°44' W 000°17'0 0.0
2020-Aug-08 11:01N 53°44' W 000°17'0 0.0
2020-Aug-08 09:30N 53°44' W 000°17'0 0.0
2020-Aug-08 09:00N 53°44' W 000°17'0 0.0
2020-Aug-08 07:59N 53°44' W 000°17'26 8.9
2020-Aug-08 05:00N 53°33' E 000°24'1616.1
2020-Aug-08 04:01N 53°25' E 000°47'816.7
2020-Aug-08 03:30N 53°21' E 000°59'816.9
2020-Aug-08 03:00N 53°16' E 001°11'3416.8
2020-Aug-08 01:00N 52°56' E 001°56'1615.5
2020-Aug-08 00:00N 52°45' E 002°13'3315.3
2020-Aug-07 21:50N 52°25' E 002°57'3816.1
2020-Aug-07 19:30N 52°04' E 003°49'14 6.7
2020-Aug-07 17:25N 51°57' E 004°08'0 0.0
2020-Aug-07 16:30N 51°57' E 004°08'0 0.0
2020-Aug-07 13:59N 51°57' E 004°08'0 0.0
2020-Aug-07 12:59N 51°57' E 004°08'0 0.0
2020-Aug-07 12:29N 51°57' E 004°08'0 0.0
2020-Aug-07 10:28N 51°57' E 004°08'0 0.0
2020-Aug-07 09:58N 51°57' E 004°08'0 0.0
2020-Aug-07 06:31N 51°57' E 004°08'2013.0
2020-Aug-07 05:01N 52°04' E 003°39'918.9
2020-Aug-07 04:31N 52°09' E 003°25'918.6
2020-Aug-07 04:00N 52°14' E 003°13'918.5
2020-Aug-07 03:31N 52°20' E 003°01'4618.3
2020-Aug-07 01:00N 52°45' E 001°58'2818.4
2020-Aug-06 23:30N 52°59' E 001°19'6217.6
2020-Aug-06 20:00N 53°36' W 000°03'11 2.8
2020-Aug-06 16:00N 53°44' W 000°17'0 0.0
2020-Aug-06 13:29N 53°44' W 000°17'0 0.0
2020-Aug-06 06:00N 53°44' W 000°17'2 3.1
2020-Aug-06 05:30N 53°43' W 000°15'1817.8
2020-Aug-06 04:30N 53°33' E 000°10'917.5
2020-Aug-06 04:00N 53°32' E 000°25'3517.4
2020-Aug-06 02:00N 53°12' E 001°11'1019.3
2020-Aug-06 01:30N 53°05' E 001°22'5317.7
2020-Aug-05 22:30N 52°34' E 002°33'4417.6
2020-Aug-05 20:00N 52°08' E 003°32'918.1
2020-Aug-05 19:30N 52°04' E 003°45'16 7.8
2020-Aug-05 17:29N 51°57' E 004°08'0 0.0
2020-Aug-05 14:00N 51°57' E 004°08'0 0.0
2020-Aug-05 13:00N 51°57' E 004°08'0 0.0
2020-Aug-05 12:27N 51°57' E 004°08'0 0.0
2020-Aug-05 09:28N 51°57' E 004°08'0 0.0
2020-Aug-05 06:31N 51°57' E 004°08'2914.1
2020-Aug-05 04:29N 52°08' E 003°26'7118.0
2020-Aug-05 00:31N 52°55' E 001°56'3718.6
2020-Aug-04 22:31N 53°18' E 001°08'3018.6
2020-Aug-04 20:55N 53°32' E 000°24'1617.9
2020-Aug-04 20:00N 53°36' W 000°02'12 4.0
2020-Aug-04 17:00N 53°44' W 000°17'0 0.0
2020-Aug-04 11:00N 53°44' W 000°17'0 0.0
2020-Aug-04 09:29N 53°44' W 000°17'0 0.0
2020-Aug-04 08:59N 53°44' W 000°17'0 0.0
2020-Aug-04 08:29N 53°44' W 000°17'10 2.9
2020-Aug-04 05:00N 53°37' W 000°05'1817.8
2020-Aug-04 04:00N 53°33' E 000°24'1616.0
2020-Aug-04 03:00N 53°24' E 000°46'8218.3
2020-Aug-03 22:30N 52°32' E 002°33'6813.5
2020-Aug-03 17:28N 51°57' E 004°08'0 0.0
2020-Aug-03 16:30N 51°57' E 004°08'0 0.0
2020-Aug-03 15:30N 51°57' E 004°08'0 0.0
2020-Aug-03 12:59N 51°57' E 004°08'0 0.0
2020-Aug-03 10:58N 51°57' E 004°08'0 0.0
2020-Aug-03 10:00N 51°57' E 004°08'0 0.0
2020-Aug-03 09:30N 51°57' E 004°08'0 0.0
2020-Aug-03 09:00N 51°57' E 004°08'0 0.0
2020-Aug-03 06:59N 51°57' E 004°08'10 6.7
2020-Aug-03 05:30N 52°01' E 003°53'1817.4
2020-Aug-03 04:29N 52°08' E 003°26'1616.9
2020-Aug-03 03:30N 52°18' E 003°05'5916.8
2020-Aug-03 00:01N 52°56' E 001°52'9113.9
2020-Aug-02 17:30N 53°44' W 000°17'0 0.0
2020-Aug-02 16:30N 53°44' W 000°17'0 0.0
2020-Aug-02 13:29N 53°44' W 000°17'0 0.0
2020-Aug-02 12:58N 53°44' W 000°17'0 0.0
2020-Aug-02 12:28N 53°44' W 000°17'0 0.0
2020-Aug-02 10:30N 53°44' W 000°17'0 0.0
2020-Aug-02 10:00N 53°44' W 000°17'1 0.2
2020-Aug-02 06:30N 53°44' W 000°16'2315.1
2020-Aug-02 05:00N 53°32' E 000°17'1415.2
2020-Aug-02 04:06N 53°27' E 000°38'715.0
2020-Aug-02 03:38N 53°24' E 000°49'915.0
2020-Aug-02 03:00N 53°19' E 001°02'1515.5
2020-Aug-02 02:00N 53°07' E 001°19'1717.3
2020-Aug-02 01:00N 52°55' E 001°39'4216.6
2020-Aug-01 22:30N 52°33' E 002°37'6610.1
2020-Aug-01 15:58N 51°57' E 004°08'0 0.0
2020-Aug-01 14:00N 51°57' E 004°08'0 0.0
2020-Aug-01 11:29N 51°57' E 004°08'0 0.0
2020-Aug-01 09:28N 51°57' E 004°08'18 4.6
2020-Aug-01 05:30N 52°04' E 003°40'4317.1
2020-Aug-01 02:59N 52°29' E 002°43'918.0
2020-Aug-01 02:30N 52°34' E 002°32'3617.9
2020-Aug-01 00:30N 52°58' E 001°48'917.7
2020-Aug-01 00:00N 53°04' E 001°37'5017.4
2020-Jul-31 21:07N 53°31' E 000°26'29 9.2
2020-Jul-31 18:00N 53°44' W 000°17'0 0.0
2020-Jul-31 15:29N 53°44' W 000°17'0 0.0
2020-Jul-31 12:00N 53°44' W 000°17'0 0.0
2020-Jul-31 09:59N 53°44' W 000°17'0 0.0
2020-Jul-31 06:28N 53°44' W 000°17'0 0.0
2020-Jul-31 05:58N 53°44' W 000°17'5 5.4
2020-Jul-31 05:01N 53°40' W 000°13'1514.6
2020-Jul-31 04:00N 53°33' E 000°09'5016.8
2020-Jul-31 01:01N 53°06' E 001°21'  

Dump ship's entire track history